Time;durP1;ratioP1;P1;durP2;ratioP2;P2;SDS_P1;SDS_P2;PMS_P1;PMS_P2;Temp;Humidity;BMP_temperature;BMP_pressure;BME280_temperature;BME280_humidity;BME280_pressure;Samples;Min_cycle;Max_cycle;Signal;HPM_P1;HPM_P2
2021/05/02 00:00:21;;;;;;;6.80;3.53;;;;;;;5.93;79.15;100096.97;5071094;28;20178;-75
2021/05/02 00:02:47;;;;;;;4.57;4.07;;;;;;;5.93;79.66;100098.84;5070737;28;20178;-75
2021/05/02 00:05:14;;;;;;;3.13;2.93;;;;;;;5.93;79.83;100096.13;5070766;28;20284;-74
2021/05/02 00:07:40;;;;;;;3.73;3.47;;;;;;;5.95;79.31;100089.34;5070788;28;20181;-76
2021/05/02 00:10:07;;;;;;;4.50;3.47;;;;;;;5.95;79.55;100094.75;5070912;28;20167;-75
2021/05/02 00:12:33;;;;;;;4.60;4.20;;;;;;;5.96;79.80;100090.16;5070712;28;20226;-75
2021/05/02 00:14:59;;;;;;;20.77;5.43;;;;;;;5.95;79.86;100083.91;5069582;28;20213;-75
2021/05/02 00:17:25;;;;;;;2.93;2.63;;;;;;;5.96;80.01;100088.25;5069289;28;20311;-75
2021/05/02 00:19:51;;;;;;;5.00;4.60;;;;;;;5.97;80.11;100086.34;5070797;28;20175;-77
2021/05/02 00:22:17;;;;;;;5.13;4.63;;;;;;;5.99;80.19;100077.91;5070524;28;20170;-75
2021/05/02 00:24:44;;;;;;;3.87;3.43;;;;;;;6.03;79.85;100082.44;5070585;28;20230;-76
2021/05/02 00:27:10;;;;;;;4.10;3.77;;;;;;;6.05;80.45;100084.88;5069313;28;20178;-76
2021/05/02 00:29:38;;;;;;;8.10;3.63;;;;;;;6.05;80.50;100090.28;5070633;28;20546;-73
2021/05/02 00:32:05;;;;;;;5.10;3.80;;;;;;;6.04;80.63;100088.69;5070300;28;20179;-74
2021/05/02 00:34:30;;;;;;;3.40;3.20;;;;;;;6.06;80.68;100081.06;5070571;28;20197;-75
2021/05/02 00:36:56;;;;;;;4.03;3.63;;;;;;;6.05;80.69;100082.16;5070518;28;20174;-75
2021/05/02 00:39:22;;;;;;;5.23;4.17;;;;;;;6.05;81.12;100077.53;5070530;28;20178;-75
2021/05/02 00:41:49;;;;;;;4.63;4.23;;;;;;;6.08;80.91;100078.88;5070454;28;20655;-76
2021/05/02 00:44:26;;;;;;;2.33;2.13;;;;;;;6.07;81.25;100077.25;5070301;28;20262;-76
2021/05/02 00:46:56;;;;;;;3.90;3.60;;;;;;;6.06;81.86;100072.91;5070404;28;20511;-77
2021/05/02 00:49:42;;;;;;;5.93;5.37;;;;;;;6.05;81.68;100069.41;5070307;28;20199;-75
2021/05/02 00:52:20;;;;;;;5.17;4.13;;;;;;;6.06;82.02;100072.91;5070195;28;20204;-76
2021/05/02 00:54:47;;;;;;;3.67;3.30;;;;;;;6.05;82.03;100065.88;5070282;28;20264;-77
2021/05/02 00:57:25;;;;;;;5.73;3.93;;;;;;;6.05;82.07;100068.59;5070528;28;20174;-73
2021/05/02 01:00:06;;;;;;;4.20;3.63;;;;;;;6.04;82.55;100067.78;5070484;28;20174;-73
2021/05/02 01:02:34;;;;;;;6.03;5.07;;;;;;;6.06;82.40;100072.91;5070260;28;20500;-73
2021/05/02 01:05:08;;;;;;;4.80;4.40;;;;;;;6.06;82.57;100065.59;5070623;28;20198;-73
2021/05/02 01:07:36;;;;;;;4.23;3.90;;;;;;;6.10;82.42;100066.66;5070099;28;20262;-73
2021/05/02 01:10:09;;;;;;;3.73;3.37;;;;;;;6.12;82.99;100063.63;5070594;28;20228;-73
2021/05/02 01:12:39;;;;;;;4.17;3.83;;;;;;;6.15;82.75;100065.75;5070136;28;20178;-73
2021/05/02 01:15:06;;;;;;;6.47;5.80;;;;;;;6.19;82.23;100066.78;5069548;28;20262;-73
2021/05/02 01:17:33;;;;;;;4.87;4.47;;;;;;;6.22;82.43;100063.50;5070254;28;20375;-74
2021/05/02 01:19:59;;;;;;;4.83;4.40;;;;;;;6.20;82.64;100069.22;5070002;28;20345;-73
2021/05/02 01:22:31;;;;;;;7.83;4.43;;;;;;;6.23;82.34;100062.41;5069861;28;20187;-73
2021/05/02 01:24:56;;;;;;;5.60;5.20;;;;;;;6.23;82.56;100067.84;5068494;28;20233;-73
2021/05/02 01:27:30;;;;;;;7.53;6.50;;;;;;;6.24;82.65;100061.31;5070262;28;20216;-73
2021/05/02 01:29:57;;;;;;;5.93;5.40;;;;;;;6.21;82.98;100061.88;5069979;28;20175;-73
2021/05/02 01:32:25;;;;;;;8.13;5.07;;;;;;;6.19;83.44;100055.94;5069654;28;20167;-73
2021/05/02 01:34:51;;;;;;;3.43;3.13;;;;;;;6.20;83.49;100068.41;5069991;28;20178;-73
2021/05/02 01:37:16;;;;;;;4.73;4.23;;;;;;;6.19;83.25;100067.59;5069848;28;20170;-73
2021/05/02 01:39:42;;;;;;;7.10;6.50;;;;;;;6.22;83.47;100058.06;5070023;28;20223;-73
2021/05/02 01:42:08;;;;;;;5.03;4.63;;;;;;;6.24;83.38;100061.31;5069639;28;20293;-73
2021/05/02 01:44:34;;;;;;;7.00;6.37;;;;;;;6.21;84.07;100059.97;5069753;28;20198;-73
2021/05/02 01:47:05;;;;;;;6.07;5.50;;;;;;;6.23;83.90;100063.22;5069742;28;20190;-73
2021/05/02 01:49:34;;;;;;;5.27;4.77;;;;;;;6.24;84.00;100064.03;5069901;28;20522;-73
2021/05/02 01:52:00;;;;;;;6.37;4.80;;;;;;;6.25;83.92;100061.03;5069514;28;20631;-73
2021/05/02 01:54:27;;;;;;;6.13;5.63;;;;;;;6.24;84.08;100051.28;5069848;28;20289;-73
2021/05/02 01:56:53;;;;;;;4.83;4.33;;;;;;;6.21;84.00;100048.31;5069688;28;21046;-73
2021/05/02 01:59:21;;;;;;;6.03;5.43;;;;;;;6.17;84.63;100048.09;5069659;28;20178;-73
2021/05/02 02:01:47;;;;;;;8.33;5.97;;;;;;;6.16;84.58;100056.53;5069657;28;20167;-73
2021/05/02 02:04:12;;;;;;;5.23;4.47;;;;;;;6.15;85.18;100054.91;5069432;28;20185;-74
2021/05/02 02:06:41;;;;;;;7.07;6.47;;;;;;;6.20;84.83;100061.06;5069570;28;20174;-73
2021/05/02 02:09:08;;;;;;;6.33;5.73;;;;;;;6.23;84.42;100059.72;5069684;28;20283;-73
2021/05/02 02:11:34;;;;;;;6.03;5.43;;;;;;;6.24;84.19;100062.13;5069642;28;20166;-73
2021/05/02 02:14:00;;;;;;;6.30;5.77;;;;;;;6.26;84.17;100061.81;5069369;28;20534;-73
2021/05/02 02:16:26;;;;;;;6.83;5.43;;;;;;;6.28;84.14;100059.63;5069486;28;20190;-73
2021/05/02 02:18:52;;;;;;;6.37;5.47;;;;;;;6.26;84.54;100059.91;5069578;28;20267;-73
2021/05/02 02:21:21;;;;;;;6.50;5.80;;;;;;;6.25;84.32;100060.22;5071677;28;20174;-73
2021/05/02 02:23:52;;;;;;;7.10;5.53;;;;;;;6.24;84.39;100070.25;5072911;28;20171;-73
2021/05/02 02:26:27;;;;;;;6.23;5.73;;;;;;;6.23;84.66;100060.50;5072941;28;20210;-74
2021/05/02 02:28:54;;;;;;;5.43;4.70;;;;;;;6.22;84.49;100066.19;5073170;28;20173;-73
2021/05/02 02:31:21;;;;;;;6.10;4.90;;;;;;;6.19;84.34;100064.06;5072979;28;20174;-73
2021/05/02 02:33:46;;;;;;;5.47;4.97;;;;;;;6.19;84.36;100069.50;5072735;28;20170;-73
2021/05/02 02:36:13;;;;;;;6.73;5.73;;;;;;;6.18;84.50;100065.19;5072709;28;20182;-73
2021/05/02 02:38:43;;;;;;;5.53;5.03;;;;;;;6.18;84.55;100070.59;5072909;28;20198;-73
2021/05/02 02:41:14;;;;;;;7.17;5.93;;;;;;;6.17;84.64;100074.41;5072591;28;20228;-74
2021/05/02 02:43:47;;;;;;;7.43;5.70;;;;;;;6.16;84.42;100072.81;5072566;28;20189;-74
2021/05/02 02:46:16;;;;;;;8.57;6.37;;;;;;;6.13;84.68;100073.38;5072762;28;20202;-73
2021/05/02 02:48:45;;;;;;;5.23;4.50;;;;;;;6.08;84.80;100076.19;5072432;28;20183;-78
2021/05/02 02:51:13;;;;;;;6.17;5.57;;;;;;;6.04;84.94;100077.84;5072988;28;20179;-75
2021/05/02 02:53:42;;;;;;;6.53;5.93;;;;;;;6.00;85.17;100071.38;5072611;28;20174;-78
2021/05/02 02:56:09;;;;;;;4.27;3.87;;;;;;;5.95;85.51;100078.50;5072626;28;20256;-75
2021/05/02 02:58:43;;;;;;;19.17;5.47;;;;;;;5.90;85.61;100078.53;5071900;28;20185;-78
2021/05/02 03:01:10;;;;;;;6.67;6.07;;;;;;;5.86;85.62;100080.19;5072330;28;20652;-73
2021/05/02 03:03:41;;;;;;;9.57;7.30;;;;;;;5.85;85.87;100075.84;5072110;28;20174;-74
2021/05/02 03:06:07;;;;;;;6.43;5.87;;;;;;;5.88;85.88;100080.69;5072008;28;20259;-77
2021/05/02 03:08:36;;;;;;;5.50;4.80;;;;;;;5.91;85.78;100084.75;5072344;28;20187;-74
2021/05/02 03:11:02;;;;;;;7.43;6.83;;;;;;;5.93;85.45;100082.56;5072114;28;20630;-75
2021/05/02 03:13:28;;;;;;;5.63;5.13;;;;;;;5.96;85.57;100090.94;5072277;28;20618;-76
2021/05/02 03:15:54;;;;;;;4.70;4.23;;;;;;;5.94;85.40;100087.72;5072081;28;20196;-75
2021/05/02 03:18:29;;;;;;;7.07;6.37;;;;;;;5.94;85.83;100097.75;5071988;28;20538;-76
2021/05/02 03:21:01;;;;;;;6.70;6.03;;;;;;;5.92;85.67;100092.59;5071820;28;20173;-74
2021/05/02 03:23:41;;;;;;;6.40;5.80;;;;;;;5.88;86.44;100099.69;5071796;28;20177;-76
2021/05/02 03:26:10;;;;;;;6.77;6.07;;;;;;;5.82;87.03;100091.91;5071805;28;20363;-77
2021/05/02 03:28:57;;;;;;;5.73;5.17;;;;;;;5.73;87.33;100088.19;5071773;28;20220;-74
2021/05/02 03:31:26;;;;;;;6.67;6.07;;;;;;;5.71;87.52;100096.63;5070266;28;20236;-76
2021/05/02 03:33:56;;;;;;;8.17;6.57;;;;;;;5.67;87.86;100093.69;5071628;28;20273;-76
2021/05/02 03:36:30;;;;;;;7.83;6.33;;;;;;;5.70;87.86;100102.34;5071578;28;20174;-74
2021/05/02 03:38:56;;;;;;;9.00;6.20;;;;;;;5.70;87.98;100099.63;5071731;28;20175;-75
2021/05/02 03:41:21;;;;;;;7.53;6.83;;;;;;;5.70;88.09;100100.44;5071511;28;20174;-76
2021/05/02 03:43:47;;;;;;;7.10;6.40;;;;;;;5.71;87.95;100104.75;5071443;28;20179;-74
2021/05/02 03:46:25;;;;;;;8.67;7.87;;;;;;;5.70;88.02;100116.69;5071333;28;20205;-76
2021/05/02 03:48:57;;;;;;;6.80;6.20;;;;;;;5.69;88.44;100117.78;5071200;28;20189;-75
2021/05/02 03:51:25;;;;;;;6.23;5.53;;;;;;;5.68;88.54;100108.03;5071350;28;20177;-76
2021/05/02 03:53:51;;;;;;;6.70;6.07;;;;;;;5.73;88.44;100118.81;5071101;28;20221;-76
2021/05/02 03:56:34;;;;;;;6.70;5.90;;;;;;;5.77;87.86;100119.03;5071038;28;20214;-75
2021/05/02 03:59:11;;;;;;;6.73;6.20;;;;;;;5.78;87.50;100126.06;5071279;28;20185;-75
2021/05/02 04:01:52;;;;;;;6.87;6.13;;;;;;;5.78;87.61;100121.47;5071190;28;20515;-74
2021/05/02 04:04:26;;;;;;;6.67;6.00;;;;;;;5.79;87.49;100123.09;5070876;28;20179;-75
2021/05/02 04:06:56;;;;;;;11.13;5.70;;;;;;;5.79;87.19;100133.94;5071002;28;20328;-77
2021/05/02 04:09:21;;;;;;;7.17;6.37;;;;;;;5.74;87.64;100131.28;5071245;28;20177;-76
2021/05/02 04:11:47;;;;;;;7.13;6.47;;;;;;;5.74;87.89;100135.88;5070909;28;20174;-77
2021/05/02 04:14:15;;;;;;;7.70;6.93;;;;;;;5.74;87.68;100141.31;5070887;28;20249;-77
2021/05/02 04:16:40;;;;;;;5.50;5.00;;;;;;;5.71;88.15;100142.69;5070776;28;20190;-75
2021/05/02 04:19:09;;;;;;;7.13;6.47;;;;;;;5.68;88.05;100146.78;5070597;28;20175;-76
2021/05/02 04:21:36;;;;;;;6.80;6.27;;;;;;;5.68;88.31;100149.50;5070739;28;20174;-76
2021/05/02 04:24:02;;;;;;;5.77;5.27;;;;;;;5.71;88.25;100145.41;5070620;28;20262;-76
2021/05/02 04:26:27;;;;;;;7.37;6.70;;;;;;;5.77;88.25;100141.53;5070529;28;20296;-74
2021/05/02 04:28:52;;;;;;;7.60;6.83;;;;;;;5.78;88.17;100151.28;5070646;28;20186;-74
2021/05/02 04:31:18;;;;;;;7.20;6.60;;;;;;;5.78;88.57;100154.00;5070679;28;20170;-78
2021/05/02 04:33:44;;;;;;;6.67;6.00;;;;;;;5.78;87.98;100151.28;5070262;28;20530;-74
2021/05/02 04:36:10;;;;;;;6.23;5.63;;;;;;;5.79;88.67;100161.06;5070554;28;20633;-77
2021/05/02 04:38:35;;;;;;;6.83;6.23;;;;;;;5.77;88.84;100155.09;5070504;28;20205;-76
2021/05/02 04:41:01;;;;;;;10.63;6.63;;;;;;;5.75;88.82;100165.41;5070489;28;20636;-76
2021/05/02 04:43:27;;;;;;;6.80;6.23;;;;;;;5.75;88.80;100157.28;5069698;28;20212;-75
2021/05/02 04:45:53;;;;;;;5.80;5.30;;;;;;;5.72;88.99;100171.41;5070440;28;20294;-77
2021/05/02 04:48:18;;;;;;;7.40;6.70;;;;;;;5.72;89.39;100176.84;5069999;28;20206;-76
2021/05/02 04:50:44;;;;;;;7.03;6.40;;;;;;;5.74;89.44;100179.25;5070427;28;20634;-77
2021/05/02 04:53:09;;;;;;;5.47;4.60;;;;;;;5.72;89.68;100168.69;5070228;28;20182;-75
2021/05/02 04:55:35;;;;;;;5.93;4.57;;;;;;;5.72;89.81;100173.31;5070204;28;20179;-73
2021/05/02 04:58:06;;;;;;;7.73;7.10;;;;;;;5.73;89.98;100174.94;5070328;28;20188;-76
2021/05/02 05:00:31;;;;;;;6.20;5.70;;;;;;;5.77;90.36;100178.69;5069998;28;20189;-74
2021/05/02 05:02:58;;;;;;;6.33;5.73;;;;;;;5.78;90.00;100180.28;5070032;28;20171;-75
2021/05/02 05:05:24;;;;;;;6.70;6.00;;;;;;;5.82;90.45;100186.78;5070306;28;20689;-78
2021/05/02 05:07:50;;;;;;;7.13;6.43;;;;;;;5.85;90.59;100181.59;5070198;28;20278;-75
2021/05/02 05:10:16;;;;;;;6.90;6.30;;;;;;;5.92;90.39;100178.56;5070216;28;20198;-74
2021/05/02 05:12:42;;;;;;;6.90;6.20;;;;;;;5.95;89.83;100189.66;5069947;28;20174;-76
2021/05/02 05:15:09;;;;;;;4.30;3.90;;;;;;;5.95;89.80;100186.13;5069973;28;20183;-76
2021/05/02 05:17:34;;;;;;;8.53;7.67;;;;;;;5.95;89.66;100186.13;5070144;28;20170;-76
2021/05/02 05:20:00;;;;;;;5.80;5.23;;;;;;;5.96;89.93;100185.84;5070134;28;20173;-76
2021/05/02 05:22:25;;;;;;;7.67;6.43;;;;;;;5.98;89.63;100196.41;5069845;28;20672;-75
2021/05/02 05:24:51;;;;;;;6.10;5.57;;;;;;;6.00;89.58;100196.13;5068703;28;20249;-76
2021/05/02 05:27:16;;;;;;;8.40;5.70;;;;;;;6.00;89.19;100202.34;5069881;28;20170;-75
2021/05/02 05:29:42;;;;;;;9.20;6.67;;;;;;;6.01;89.15;100203.16;5069843;28;20175;-77
2021/05/02 05:32:07;;;;;;;5.27;4.77;;;;;;;6.02;88.36;100212.91;5069796;28;20503;-77
2021/05/02 05:34:33;;;;;;;10.07;6.10;;;;;;;6.04;88.72;100206.09;5069975;28;20178;-76
2021/05/02 05:36:59;;;;;;;6.20;5.67;;;;;;;6.11;88.60;100208.47;5069908;28;20170;-77
2021/05/02 05:39:24;;;;;;;7.20;6.13;;;;;;;6.14;88.72;100210.63;5070010;28;20175;-78
2021/05/02 05:41:51;;;;;;;7.20;6.40;;;;;;;6.12;88.59;100210.09;5069798;28;20232;-77
2021/05/02 05:44:16;;;;;;;3.87;3.57;;;;;;;6.13;88.99;100209.81;5069641;28;20174;-75
2021/05/02 05:46:41;;;;;;;2.97;2.73;;;;;;;6.15;89.51;100217.66;5069608;28;20712;-73
2021/05/02 05:49:07;;;;;;;5.33;4.83;;;;;;;6.12;89.31;100210.09;5069765;28;20193;-74
2021/05/02 05:51:32;;;;;;;7.00;6.30;;;;;;;6.19;88.82;100215.97;5069690;28;20296;-73
2021/05/02 05:53:58;;;;;;;4.87;4.47;;;;;;;6.28;88.09;100222.41;5067722;28;20174;-74
2021/05/02 05:56:23;;;;;;;4.73;4.33;;;;;;;6.33;86.92;100222.31;5073322;28;20201;-75
2021/05/02 05:58:48;;;;;;;5.80;5.30;;;;;;;6.34;86.02;100226.66;5072970;28;20189;-73
2021/05/02 06:01:14;;;;;;;2.47;2.37;;;;;;;6.38;85.42;100222.28;5073348;28;20205;-72
2021/05/02 06:03:40;;;;;;;4.83;4.33;;;;;;;6.44;85.93;100218.41;5073480;28;20214;-72
2021/05/02 06:06:05;;;;;;;5.93;4.57;;;;;;;6.50;86.17;100219.13;5074176;28;20218;-73
2021/05/02 06:08:30;;;;;;;4.73;4.33;;;;;;;6.52;86.75;100227.84;5073346;28;20565;-72
2021/05/02 06:10:56;;;;;;;4.80;4.40;;;;;;;6.52;87.55;100228.63;5073354;28;20649;-71
2021/05/02 06:13:21;;;;;;;8.57;4.87;;;;;;;6.48;87.33;100227.56;5073660;28;20273;-75
2021/05/02 06:15:46;;;;;;;2.43;2.17;;;;;;;6.47;87.13;100225.97;5073245;28;20235;-72
2021/05/02 06:18:12;;;;;;;2.47;2.27;;;;;;;6.42;86.83;100234.16;5073219;28;20202;-73
2021/05/02 06:20:37;;;;;;;5.73;5.10;;;;;;;6.42;86.78;100241.50;5073136;28;20182;-73
2021/05/02 06:23:03;;;;;;;8.87;6.50;;;;;;;6.44;86.03;100233.88;5073105;28;20167;-73
2021/05/02 06:25:28;;;;;;;5.37;4.93;;;;;;;6.48;86.71;100241.16;5073432;28;20263;-72
2021/05/02 06:27:56;;;;;;;9.90;5.43;;;;;;;6.54;85.99;100237.28;5073256;28;20208;-72
2021/05/02 06:30:23;;;;;;;6.30;4.03;;;;;;;6.60;84.88;100240.75;5073221;28;20316;-73
2021/05/02 06:32:48;;;;;;;5.57;5.17;;;;;;;6.64;83.67;100238.25;5073286;28;20175;-72
2021/05/02 06:35:13;;;;;;;6.03;5.50;;;;;;;6.76;84.05;100244.06;5073245;28;20235;-73
2021/05/02 06:37:38;;;;;;;3.53;3.23;;;;;;;6.84;84.00;100238.81;5073291;28;20185;-74
2021/05/02 06:40:04;;;;;;;5.60;5.03;;;;;;;6.81;82.70;100238.59;5073250;28;20175;-73
2021/05/02 06:42:30;;;;;;;2.83;2.70;;;;;;;6.73;81.92;100245.47;5073083;28;20179;-72
2021/05/02 06:44:55;;;;;;;4.30;3.63;;;;;;;6.67;82.33;100241.22;5073160;28;20202;-72
2021/05/02 06:47:20;;;;;;;1.13;1.13;;;;;;;6.64;82.32;100240.97;5072934;28;20252;-72
2021/05/02 06:49:46;;;;;;;2.87;2.67;;;;;;;6.63;82.64;100240.16;5072901;28;20251;-73
2021/05/02 06:52:12;;;;;;;3.23;2.60;;;;;;;6.58;81.64;100245.66;5072842;28;20628;-74
2021/05/02 06:54:37;;;;;;;0.23;0.23;;;;;;;6.54;80.56;100256.28;5072932;28;20533;-73
2021/05/02 06:57:02;;;;;;;1.40;1.40;;;;;;;6.48;79.12;100252.00;5071573;28;20185;-72
2021/05/02 06:59:28;;;;;;;1.63;1.53;;;;;;;6.53;79.40;100248.44;5072982;28;20706;-72
2021/05/02 07:01:53;;;;;;;0.97;0.93;;;;;;;6.54;78.79;100242.72;5072773;28;20179;-72
2021/05/02 07:04:19;;;;;;;2.67;2.47;;;;;;;6.54;78.90;100247.34;5072693;28;20198;-73
2021/05/02 07:06:44;;;;;;;3.77;3.30;;;;;;;6.61;79.33;100252.41;5071653;28;20198;-73
2021/05/02 07:09:09;;;;;;;2.57;2.37;;;;;;;6.61;78.36;100245.06;5072326;28;20288;-72
2021/05/02 07:11:36;;;;;;;4.03;3.43;;;;;;;6.71;78.71;100246.88;5072325;28;20648;-74
2021/05/02 07:14:02;;;;;;;2.97;2.77;;;;;;;6.84;77.72;100248.88;5071757;28;20643;-72
2021/05/02 07:16:28;;;;;;;3.10;2.83;;;;;;;6.94;77.28;100247.91;5072453;28;20185;-72
2021/05/02 07:18:53;;;;;;;2.30;2.17;;;;;;;7.13;75.93;100254.19;5072318;28;20171;-73
2021/05/02 07:21:20;;;;;;;1.03;1.00;;;;;;;7.41;75.42;100249.72;5072188;28;20254;-74
2021/05/02 07:23:48;;;;;;;2.53;2.33;;;;;;;7.55;75.22;100253.28;5071722;28;20366;-72
2021/05/02 07:26:14;;;;;;;1.80;1.60;;;;;;;7.69;73.12;100251.44;5072705;28;20217;-72
2021/05/02 07:28:40;;;;;;;0.77;0.67;;;;;;;7.85;72.84;100241.13;5073533;28;20257;-73
2021/05/02 07:31:05;;;;;;;1.37;1.30;;;;;;;7.96;71.77;100247.19;5072425;28;20194;-75
2021/05/02 07:33:31;;;;;;;0.83;0.83;;;;;;;8.07;71.04;100246.69;5071873;28;20167;-75
2021/05/02 07:35:57;;;;;;;1.97;1.87;;;;;;;8.27;71.35;100248.25;5072138;28;20187;-74
2021/05/02 07:38:23;;;;;;;0.87;0.87;;;;;;;8.26;70.99;100257.53;5071533;28;20236;-72
2021/05/02 07:40:49;;;;;;;4.87;0.77;;;;;;;8.18;70.97;100263.66;5067322;28;20186;-72
2021/05/02 07:43:15;;;;;;;0.93;0.93;;;;;;;8.07;70.84;100254.03;5071844;28;20212;-73
2021/05/02 07:45:41;;;;;;;1.30;1.20;;;;;;;7.98;71.87;100256.66;5071695;28;20320;-72
2021/05/02 07:48:06;;;;;;;1.40;1.30;;;;;;;7.99;72.26;100260.19;5071685;28;20190;-73
2021/05/02 07:50:32;;;;;;;1.00;1.00;;;;;;;7.91;71.92;100255.41;5071743;28;20178;-72
2021/05/02 07:52:57;;;;;;;1.83;1.73;;;;;;;7.76;73.77;100270.09;5071775;28;20175;-77
2021/05/02 07:55:23;;;;;;;1.43;1.33;;;;;;;7.70;74.83;100261.22;5071787;28;20174;-72
2021/05/02 07:57:48;;;;;;;1.67;1.57;;;;;;;7.70;75.10;100269.38;5071540;28;20661;-72
2021/05/02 08:00:18;;;;;;;1.03;0.73;;;;;;;7.79;74.97;100261.31;5072223;28;20232;-73
2021/05/02 08:02:43;;;;;;;2.20;2.00;;;;;;;7.85;76.08;100262.06;5070283;28;20871;-72
2021/05/02 08:05:09;;;;;;;3.23;3.03;;;;;;;8.04;75.69;100260.09;5071468;28;20214;-72
2021/05/02 08:07:35;;;;;;;3.63;3.13;;;;;;;8.12;74.55;100259.41;5071489;28;20182;-73
2021/05/02 08:10:00;;;;;;;2.53;2.33;;;;;;;8.09;73.91;100268.16;5071441;28;20657;-72
2021/05/02 08:12:25;;;;;;;4.13;2.60;;;;;;;8.06;74.25;100266.03;5071260;28;20576;-73
2021/05/02 08:14:51;;;;;;;1.63;1.47;;;;;;;7.97;74.14;100265.94;5071463;28;20175;-72
2021/05/02 08:17:16;;;;;;;12.97;1.50;;;;;;;7.92;74.85;100273.34;5071351;28;20257;-72
2021/05/02 08:19:41;;;;;;;1.43;1.33;;;;;;;7.89;75.18;100273.97;5070892;28;20179;-72
2021/05/02 08:22:07;;;;;;;3.87;2.30;;;;;;;7.91;75.25;100286.16;5071255;28;20239;-72
2021/05/02 08:24:32;;;;;;;2.00;1.90;;;;;;;7.80;75.24;100297.47;5071205;28;20682;-73
2021/05/02 08:26:57;;;;;;;3.07;2.87;;;;;;;7.72;75.33;100285.38;5071088;28;20543;-73
2021/05/02 08:29:23;;;;;;;1.43;1.33;;;;;;;7.77;75.17;100282.56;5071195;28;20253;-72
2021/05/02 08:31:49;;;;;;;4.60;2.33;;;;;;;8.02;75.32;100284.88;5071090;28;20632;-73
2021/05/02 08:34:14;;;;;;;2.07;1.80;;;;;;;8.35;74.13;100291.13;5071215;28;20630;-72
2021/05/02 08:36:39;;;;;;;1.40;1.30;;;;;;;8.69;73.59;100276.34;5071051;28;20183;-72
2021/05/02 08:39:05;;;;;;;3.23;2.93;;;;;;;8.76;71.67;100282.19;5071071;28;20265;-73
2021/05/02 08:41:30;;;;;;;0.60;0.60;;;;;;;8.90;72.76;100279.44;5070926;28;20183;-72
2021/05/02 08:43:57;;;;;;;2.90;2.70;;;;;;;8.93;71.73;100282.38;5070974;28;20227;-74
2021/05/02 08:46:23;;;;;;;1.33;1.23;;;;;;;8.75;72.10;100285.22;5070893;28;20202;-72
2021/05/02 08:48:49;;;;;;;1.77;1.00;;;;;;;8.50;72.10;100289.22;5070607;28;20193;-72
2021/05/02 08:51:15;;;;;;;0.60;0.57;;;;;;;8.25;74.00;100299.47;5069744;28;20194;-73
2021/05/02 08:53:41;;;;;;;2.97;2.67;;;;;;;8.18;75.45;100296.31;5070466;28;20179;-73
2021/05/02 08:56:06;;;;;;;1.27;0.87;;;;;;;8.16;75.39;100298.53;5070771;28;20186;-73
2021/05/02 08:58:32;;;;;;;2.00;1.90;;;;;;;8.13;76.04;100296.41;5070871;28;20183;-73
2021/05/02 09:01:00;;;;;;;0.93;0.93;;;;;;;7.95;76.19;100302.69;5070893;28;20166;-72
2021/05/02 09:03:46;;;;;;;1.53;1.43;;;;;;;7.79;77.26;100304.03;5070840;28;20174;-73
2021/05/02 09:06:22;;;;;;;0.30;0.30;;;;;;;7.67;79.18;100308.03;5070749;28;20199;-73
2021/05/02 09:08:50;;;;;;;1.80;1.67;;;;;;;7.50;80.50;100307.72;5069598;28;20163;-72
2021/05/02 09:11:17;;;;;;;1.63;1.53;;;;;;;7.38;81.90;100310.91;5070737;28;20175;-73
2021/05/02 09:13:50;;;;;;;2.63;2.43;;;;;;;7.35;83.37;100310.66;5070529;28;20247;-72
2021/05/02 09:16:16;;;;;;;2.00;1.80;;;;;;;7.26;81.97;100309.72;5070651;28;20171;-72
2021/05/02 09:18:45;;;;;;;0.77;0.77;;;;;;;7.28;81.24;100304.78;5069342;28;20527;-73
2021/05/02 09:21:30;;;;;;;3.40;2.37;;;;;;;7.30;80.51;100314.25;5070797;28;20170;-75
2021/05/02 09:23:58;;;;;;;1.40;1.40;;;;;;;7.41;81.17;100323.09;5070532;28;20182;-74
2021/05/02 09:26:34;;;;;;;0.70;0.70;;;;;;;7.50;80.34;100313.16;5070529;28;20803;-72
2021/05/02 09:29:03;;;;;;;1.10;1.10;;;;;;;7.60;79.89;100318.47;5070913;28;20312;-72
2021/05/02 09:31:31;;;;;;;1.93;1.63;;;;;;;7.82;80.11;100317.06;5073141;28;20535;-72
2021/05/02 09:34:18;;;;;;;1.73;1.63;;;;;;;7.93;78.59;100315.78;5074449;28;20623;-74
2021/05/02 09:36:51;;;;;;;0.50;0.50;;;;;;;7.96;79.18;100318.72;5073367;28;20178;-73
2021/05/02 09:39:49;;;;;;;2.13;1.23;;;;;;;7.97;78.52;100316.81;5074528;28;20174;-74
2021/05/02 09:42:21;;;;;;;1.17;1.17;;;;;;;7.79;78.00;100315.72;5074593;28;20169;-73
2021/05/02 09:44:57;;;;;;;0.87;0.87;;;;;;;7.72;78.00;100318.81;5074237;28;20228;-73
2021/05/02 09:47:30;;;;;;;3.20;2.97;;;;;;;7.77;78.85;100320.66;5073943;28;20185;-73
2021/05/02 09:50:17;;;;;;;1.43;1.33;;;;;;;7.76;78.85;100317.13;5074242;28;20162;-73
2021/05/02 09:52:53;;;;;;;1.27;1.20;;;;;;;7.85;78.82;100321.91;5074154;28;20178;-72
2021/05/02 09:55:23;;;;;;;1.27;0.80;;;;;;;7.96;78.39;100321.44;5074331;28;20159;-73
2021/05/02 09:57:53;;;;;;;0.43;0.43;;;;;;;7.91;78.80;100317.97;5074089;28;20665;-72
2021/05/02 10:00:49;;;;;;;1.27;1.17;;;;;;;7.93;78.34;100321.22;5074212;28;20171;-81
2021/05/02 10:03:18;;;;;;;1.67;1.07;;;;;;;7.81;78.61;100318.13;5065534;28;20597;-72
2021/05/02 10:06:04;;;;;;;1.70;1.63;;;;;;;7.85;79.53;100322.72;5073781;28;20220;-74
2021/05/02 10:08:35;;;;;;;2.43;2.33;;;;;;;7.85;79.25;100319.19;5074071;28;20167;-72
2021/05/02 10:11:04;;;;;;;3.47;3.17;;;;;;;7.75;79.42;100322.84;5074068;28;20178;-73
2021/05/02 10:13:30;;;;;;;1.30;1.30;;;;;;;7.72;79.36;100316.09;5073840;28;20183;-74
2021/05/02 10:15:57;;;;;;;3.73;0.90;;;;;;;7.80;78.29;100328.22;5072433;28;20852;-73
2021/05/02 10:18:23;;;;;;;7.87;2.27;;;;;;;7.86;78.61;100315.34;5073724;28;20244;-73
2021/05/02 10:20:49;;;;;;;0.63;0.63;;;;;;;7.81;77.79;100318.13;5072242;28;20633;-72
2021/05/02 10:23:15;;;;;;;1.93;1.83;;;;;;;7.93;78.83;100323.94;5071882;28;20232;-72
2021/05/02 10:25:42;;;;;;;1.47;1.37;;;;;;;8.06;77.67;100325.91;5073397;28;20202;-77
2021/05/02 10:28:08;;;;;;;1.80;0.90;;;;;;;8.23;77.58;100312.53;5073529;28;20186;-73
2021/05/02 10:30:39;;;;;;;1.63;1.53;;;;;;;8.32;76.84;100313.47;5073830;28;20182;-72
2021/05/02 10:33:07;;;;;;;1.13;1.03;;;;;;;8.42;75.81;100319.88;5073425;28;20657;-73
2021/05/02 10:35:43;;;;;;;1.63;1.53;;;;;;;8.38;76.25;100316.94;5073304;28;20721;-73
2021/05/02 10:38:10;;;;;;;2.97;2.57;;;;;;;8.31;76.86;100322.75;5073543;28;20228;-72
2021/05/02 10:40:36;;;;;;;2.67;2.00;;;;;;;8.21;76.61;100322.09;5072579;28;20190;-73
2021/05/02 10:43:05;;;;;;;1.37;1.27;;;;;;;8.18;77.37;100320.78;5071814;28;20181;-73
2021/05/02 10:45:31;;;;;;;0.70;0.50;;;;;;;8.03;77.07;100338.19;5053261;28;20197;-73
2021/05/02 10:47:57;;;;;;;1.63;1.53;;;;;;;7.94;80.08;100371.78;5053054;28;20266;-73
2021/05/02 10:50:33;;;;;;;3.13;1.60;;;;;;;7.45;80.22;100352.09;5053216;28;20206;-75
2021/05/02 10:53:10;;;;;;;1.50;1.40;;;;;;;6.93;82.28;100363.06;5053022;28;20166;-72
2021/05/02 10:56:03;;;;;;;1.43;1.33;;;;;;;6.56;85.99;100370.81;5053404;28;20177;-75
2021/05/02 10:58:30;;;;;;;1.27;1.17;;;;;;;6.34;88.44;100372.34;5053244;28;20167;-73
2021/05/02 11:01:02;;;;;;;1.63;1.53;;;;;;;6.29;90.10;100372.41;5053417;28;20167;-74
2021/05/02 11:06:02;;;;;;;1.67;1.57;;;;;;;6.29;90.78;100378.66;5052867;28;20206;-73
2021/05/02 11:08:46;;;;;;;0.80;0.80;;;;;;;6.38;91.43;100381.56;5052636;28;20183;-73
2021/05/02 11:11:50;;;;;;;1.57;1.47;;;;;;;6.45;91.42;100376.59;5052892;28;20289;-73
2021/05/02 11:14:17;;;;;;;2.77;2.57;;;;;;;6.50;90.83;100377.34;5010393;28;20184;-73
2021/05/02 11:17:10;;;;;;;1.73;1.63;;;;;;;6.59;91.05;100376.75;5044984;28;20191;-72
2021/05/02 11:19:35;;;;;;;7.30;1.10;;;;;;;6.61;90.98;100378.06;5052605;28;20175;-76
2021/05/02 11:22:05;;;;;;;1.67;1.47;;;;;;;6.64;89.80;100384.84;5052647;28;20178;-72
2021/05/02 11:24:39;;;;;;;0.43;0.43;;;;;;;6.75;89.72;100383.63;5052510;28;20179;-79
2021/05/02 11:27:15;;;;;;;1.17;1.17;;;;;;;6.86;90.01;100385.16;5060986;28;20177;-76
2021/05/02 11:32:42;;;;;;;2.77;2.57;;;;;;;7.05;89.89;100393.38;5072355;28;20669;-73
2021/05/02 11:35:16;;;;;;;22.70;1.80;;;;;;;6.93;88.59;100385.59;5072592;28;20262;-77
2021/05/02 11:38:03;;;;;;;1.00;0.97;;;;;;;6.96;89.38;100393.22;5072152;28;20166;-76
2021/05/02 11:40:31;;;;;;;1.23;0.97;;;;;;;7.04;89.32;100391.75;5072387;28;20190;-73
2021/05/02 11:43:17;;;;;;;0.70;0.70;;;;;;;7.21;88.39;100388.56;5072358;28;20745;-73
2021/05/02 11:45:52;;;;;;;1.43;1.33;;;;;;;7.23;86.27;100398.03;5072064;28;20622;-74